RJOA/HIJ METAR and TAF weather

Enter ICAO airport designator
Station Type Date Time Source
RJOA METAR 2020/03/29 13:00 UTC NOAA

RJOA 291300Z 04007KT 9999 FEW020 BKN140 BKN/// 07/02 Q1019


Station Type Date Time Source
RJOA Decoded METAR 2020/03/29 13:00 UTC NOAA

Hiroshima Airport, Japan (RJOA) 34-26N 132-55E 334M
Mar 29, 2020 - 09:00 AM EDT / 2020.03.29 1300 UTC
Wind: from the NE (040 degrees) at 8 MPH (7 KT):0
Visibility: greater than 7 mile(s):0
Sky conditions: mostly cloudy
Temperature: 44 F (7 C)
Dew Point: 35 F (2 C)
Relative Humidity: 70%
Pressure (altimeter): 30.09 in. Hg (1019 hPa)
ob: RJOA 291300Z 04007KT 9999 FEW020 BKN140 BKN/// 07/02 Q1019
cycle: 13

Station Type Date Time Source
RJOA TAF 2020/03/29 12:30 UTC NOAA

TAF RJOA 291107Z 2912/3018 05006KT 9999 FEW025

Example: see airport list